sensor_id;sensor_type;location;lat;lon;timestamp;pressure;altitude;pressure_sealevel;temperature;humidity
22257;BME280;11297;42.686;23.374;2023-02-01T00:00:01;95082.50;;;3.82;65.72
22257;BME280;11297;42.686;23.374;2023-02-01T00:02:26;95079.94;;;3.82;66.03
22257;BME280;11297;42.686;23.374;2023-02-01T00:04:51;95080.19;;;3.85;65.74
22257;BME280;11297;42.686;23.374;2023-02-01T00:07:17;95081.19;;;3.79;65.68
22257;BME280;11297;42.686;23.374;2023-02-01T00:09:42;95087.13;;;3.90;65.87
22257;BME280;11297;42.686;23.374;2023-02-01T00:12:08;95075.53;;;3.87;66.17
22257;BME280;11297;42.686;23.374;2023-02-01T00:14:33;95084.78;;;3.93;66.02
22257;BME280;11297;42.686;23.374;2023-02-01T00:17:04;95083.53;;;3.96;65.81
22257;BME280;11297;42.686;23.374;2023-02-01T00:19:30;95085.81;;;4.02;65.62
22257;BME280;11297;42.686;23.374;2023-02-01T00:21:55;95080.97;;;4.06;65.48
22257;BME280;11297;42.686;23.374;2023-02-01T00:24:21;95085.59;;;4.09;65.01
22257;BME280;11297;42.686;23.374;2023-02-01T00:26:46;95076.84;;;3.90;65.04
22257;BME280;11297;42.686;23.374;2023-02-01T00:29:14;95080.44;;;3.99;65.19
22257;BME280;11297;42.686;23.374;2023-02-01T00:31:41;95074.03;;;3.86;65.03
22257;BME280;11297;42.686;23.374;2023-02-01T00:34:07;95071.94;;;3.69;65.36
22257;BME280;11297;42.686;23.374;2023-02-01T00:36:34;95075.78;;;3.71;65.63
22257;BME280;11297;42.686;23.374;2023-02-01T00:38:59;95070.41;;;3.73;65.20
22257;BME280;11297;42.686;23.374;2023-02-01T00:41:25;95081.19;;;3.75;64.85
22257;BME280;11297;42.686;23.374;2023-02-01T00:43:51;95065.25;;;3.73;64.77
22257;BME280;11297;42.686;23.374;2023-02-01T00:46:18;95068.88;;;3.81;64.19
22257;BME280;11297;42.686;23.374;2023-02-01T00:48:44;95061.19;;;3.86;63.93
22257;BME280;11297;42.686;23.374;2023-02-01T00:51:13;95063.75;;;3.86;63.55
22257;BME280;11297;42.686;23.374;2023-02-01T00:53:39;95068.13;;;3.91;63.08
22257;BME280;11297;42.686;23.374;2023-02-01T00:56:05;95057.59;;;3.92;62.23
22257;BME280;11297;42.686;23.374;2023-02-01T00:58:31;95067.09;;;3.97;62.51
22257;BME280;11297;42.686;23.374;2023-02-01T01:01:08;95065.81;;;3.89;62.30
22257;BME280;11297;42.686;23.374;2023-02-01T01:03:37;95061.41;;;3.80;62.12
22257;BME280;11297;42.686;23.374;2023-02-01T01:06:14;95061.91;;;3.77;62.50
22257;BME280;11297;42.686;23.374;2023-02-01T01:08:40;95055.50;;;3.79;61.95
22257;BME280;11297;42.686;23.374;2023-02-01T01:11:07;95059.84;;;3.54;62.67
22257;BME280;11297;42.686;23.374;2023-02-01T01:13:33;95063.72;;;3.67;61.83
22257;BME280;11297;42.686;23.374;2023-02-01T01:16:03;95058.34;;;3.73;61.85
22257;BME280;11297;42.686;23.374;2023-02-01T01:18:29;95045.75;;;3.72;61.23
22257;BME280;11297;42.686;23.374;2023-02-01T01:20:55;95049.59;;;3.74;60.99
22257;BME280;11297;42.686;23.374;2023-02-01T01:23:21;95058.06;;;3.70;60.58
22257;BME280;11297;42.686;23.374;2023-02-01T01:25:46;95059.34;;;3.77;60.72
22257;BME280;11297;42.686;23.374;2023-02-01T01:28:11;95041.91;;;3.64;60.42
22257;BME280;11297;42.686;23.374;2023-02-01T01:30:37;95063.22;;;3.79;60.35
22257;BME280;11297;42.686;23.374;2023-02-01T01:33:03;95062.44;;;3.84;59.98
22257;BME280;11297;42.686;23.374;2023-02-01T01:35:30;95052.94;;;3.84;59.60
22257;BME280;11297;42.686;23.374;2023-02-01T01:37:56;95070.66;;;4.01;59.20
22257;BME280;11297;42.686;23.374;2023-02-01T01:40:21;95083.28;;;3.97;58.86
22257;BME280;11297;42.686;23.374;2023-02-01T01:42:47;95057.06;;;3.85;58.52
22257;BME280;11297;42.686;23.374;2023-02-01T01:45:19;95069.66;;;4.02;58.59
22257;BME280;11297;42.686;23.374;2023-02-01T01:47:50;95072.50;;;4.10;57.93
22257;BME280;11297;42.686;23.374;2023-02-01T01:50:20;95078.38;;;3.96;57.28
22257;BME280;11297;42.686;23.374;2023-02-01T01:52:49;95070.94;;;3.89;57.33
22257;BME280;11297;42.686;23.374;2023-02-01T01:55:18;95056.78;;;3.77;57.53
22257;BME280;11297;42.686;23.374;2023-02-01T01:57:50;95057.81;;;3.66;57.55
22257;BME280;11297;42.686;23.374;2023-02-01T02:00:19;95076.28;;;3.63;57.50
22257;BME280;11297;42.686;23.374;2023-02-01T02:02:49;95068.34;;;3.65;57.92
22257;BME280;11297;42.686;23.374;2023-02-01T02:05:18;95040.56;;;3.47;57.76
22257;BME280;11297;42.686;23.374;2023-02-01T02:07:47;95059.09;;;3.54;57.62
22257;BME280;11297;42.686;23.374;2023-02-01T02:10:15;95066.75;;;3.39;57.87
22257;BME280;11297;42.686;23.374;2023-02-01T02:12:43;95064.41;;;3.23;58.18
22257;BME280;11297;42.686;23.374;2023-02-01T02:15:11;95058.47;;;3.17;58.42
22257;BME280;11297;42.686;23.374;2023-02-01T02:17:49;95067.94;;;3.12;58.52
22257;BME280;11297;42.686;23.374;2023-02-01T02:20:46;95059.72;;;3.15;59.00
22257;BME280;11297;42.686;23.374;2023-02-01T02:26:25;95053.91;;;3.39;58.58
22257;BME280;11297;42.686;23.374;2023-02-01T02:31:52;95063.72;;;3.57;57.62
22257;BME280;11297;42.686;23.374;2023-02-01T02:42:15;95057.78;;;3.46;57.63
22257;BME280;11297;42.686;23.374;2023-02-01T02:48:38;95051.06;;;3.31;58.17
22257;BME280;11297;42.686;23.374;2023-02-01T02:51:09;95045.13;;;3.15;58.97
22257;BME280;11297;42.686;23.374;2023-02-01T02:56:49;95057.16;;;3.05;60.10
22257;BME280;11297;42.686;23.374;2023-02-01T02:59:36;95046.09;;;3.04;60.22
22257;BME280;11297;42.686;23.374;2023-02-01T03:02:21;95047.34;;;2.97;61.04
22257;BME280;11297;42.686;23.374;2023-02-01T03:05:06;95055.34;;;3.00;60.72
22257;BME280;11297;42.686;23.374;2023-02-01T03:10:17;95065.63;;;3.05;60.16
22257;BME280;11297;42.686;23.374;2023-02-01T03:12:49;95053.00;;;2.94;60.49
22257;BME280;11297;42.686;23.374;2023-02-01T03:18:26;95063.31;;;3.09;59.61
22257;BME280;11297;42.686;23.374;2023-02-01T03:20:53;95078.69;;;3.09;59.18
22257;BME280;11297;42.686;23.374;2023-02-01T03:23:23;95075.38;;;3.13;59.32
22257;BME280;11297;42.686;23.374;2023-02-01T03:25:53;95076.69;;;3.11;58.72
22257;BME280;11297;42.686;23.374;2023-02-01T03:28:22;95076.63;;;3.06;59.15
22257;BME280;11297;42.686;23.374;2023-02-01T03:30:48;95084.31;;;3.01;59.32
22257;BME280;11297;42.686;23.374;2023-02-01T03:33:21;95021.81;;;2.56;59.41
22257;BME280;11297;42.686;23.374;2023-02-01T03:39:05;95093.88;;;3.15;59.10
22257;BME280;11297;42.686;23.374;2023-02-01T03:41:42;95091.34;;;3.25;58.53
22257;BME280;11297;42.686;23.374;2023-02-01T03:47:14;95091.88;;;3.32;58.10
22257;BME280;11297;42.686;23.374;2023-02-01T03:49:44;95085.47;;;3.34;57.61
22257;BME280;11297;42.686;23.374;2023-02-01T03:52:16;95076.72;;;3.35;57.35
22257;BME280;11297;42.686;23.374;2023-02-01T03:54:44;95094.22;;;3.43;57.13
22257;BME280;11297;42.686;23.374;2023-02-01T03:57:14;95086.53;;;3.43;56.91
22257;BME280;11297;42.686;23.374;2023-02-01T03:59:42;95056.75;;;3.37;56.92
22257;BME280;11297;42.686;23.374;2023-02-01T04:02:09;95092.22;;;3.60;56.42
22257;BME280;11297;42.686;23.374;2023-02-01T04:04:35;95093.75;;;3.66;56.17
22257;BME280;11297;42.686;23.374;2023-02-01T04:07:01;95083.75;;;3.60;55.85
22257;BME280;11297;42.686;23.374;2023-02-01T04:09:26;95087.88;;;3.66;56.14
22257;BME280;11297;42.686;23.374;2023-02-01T04:11:52;95067.28;;;3.61;55.82
22257;BME280;11297;42.686;23.374;2023-02-01T04:14:17;95084.50;;;3.60;56.26
22257;BME280;11297;42.686;23.374;2023-02-01T04:16:43;95079.63;;;3.64;56.35
22257;BME280;11297;42.686;23.374;2023-02-01T04:19:08;95075.53;;;3.73;55.67
22257;BME280;11297;42.686;23.374;2023-02-01T04:21:33;95076.28;;;3.68;56.25
22257;BME280;11297;42.686;23.374;2023-02-01T04:23:59;95068.06;;;3.56;56.12
22257;BME280;11297;42.686;23.374;2023-02-01T04:26:24;95079.09;;;3.52;56.70
22257;BME280;11297;42.686;23.374;2023-02-01T04:28:50;95074.19;;;3.50;57.61
22257;BME280;11297;42.686;23.374;2023-02-01T04:31:18;95088.59;;;3.46;57.69
22257;BME280;11297;42.686;23.374;2023-02-01T04:33:54;95089.31;;;3.37;57.92
22257;BME280;11297;42.686;23.374;2023-02-01T04:36:21;95064.19;;;3.39;57.78
22257;BME280;11297;42.686;23.374;2023-02-01T04:38:50;95087.28;;;3.44;57.98
22257;BME280;11297;42.686;23.374;2023-02-01T04:41:16;95072.16;;;3.42;58.16
22257;BME280;11297;42.686;23.374;2023-02-01T04:43:48;95076.78;;;3.45;58.43
22257;BME280;11297;42.686;23.374;2023-02-01T04:46:14;95079.88;;;3.57;58.05
22257;BME280;11297;42.686;23.374;2023-02-01T04:48:40;95073.72;;;3.58;57.91
22257;BME280;11297;42.686;23.374;2023-02-01T04:51:06;95087.09;;;3.70;57.90
22257;BME280;11297;42.686;23.374;2023-02-01T04:53:34;95089.66;;;3.75;58.00
22257;BME280;11297;42.686;23.374;2023-02-01T04:55:59;95087.59;;;3.72;58.13
22257;BME280;11297;42.686;23.374;2023-02-01T04:58:25;95093.53;;;3.78;58.72
22257;BME280;11297;42.686;23.374;2023-02-01T05:00:50;95100.19;;;3.74;58.82
22257;BME280;11297;42.686;23.374;2023-02-01T05:03:17;95097.84;;;3.62;59.16
22257;BME280;11297;42.686;23.374;2023-02-01T05:05:42;95099.41;;;3.63;58.87
22257;BME280;11297;42.686;23.374;2023-02-01T05:08:08;95114.31;;;3.61;59.97
22257;BME280;11297;42.686;23.374;2023-02-01T05:10:33;95114.56;;;3.70;59.52
22257;BME280;11297;42.686;23.374;2023-02-01T05:12:59;95110.72;;;3.72;59.96
22257;BME280;11297;42.686;23.374;2023-02-01T05:15:42;95120.75;;;3.83;59.25
22257;BME280;11297;42.686;23.374;2023-02-01T05:18:08;95122.03;;;3.81;59.50
22257;BME280;11297;42.686;23.374;2023-02-01T05:20:33;95117.19;;;3.94;59.15
22257;BME280;11297;42.686;23.374;2023-02-01T05:23:01;95104.31;;;3.84;59.68
22257;BME280;11297;42.686;23.374;2023-02-01T05:25:27;95107.91;;;3.88;59.32
22257;BME280;11297;42.686;23.374;2023-02-01T05:27:53;95114.06;;;3.87;59.01
22257;BME280;11297;42.686;23.374;2023-02-01T05:30:18;95117.94;;;3.95;59.42
22257;BME280;11297;42.686;23.374;2023-02-01T05:32:44;95120.50;;;3.85;59.81
22257;BME280;11297;42.686;23.374;2023-02-01T05:35:09;95117.94;;;3.95;59.82
22257;BME280;11297;42.686;23.374;2023-02-01T05:37:35;95115.13;;;3.91;59.48
22257;BME280;11297;42.686;23.374;2023-02-01T05:40:00;95121.03;;;4.07;59.36
22257;BME280;11297;42.686;23.374;2023-02-01T05:42:26;95127.97;;;4.06;59.29
22257;BME280;11297;42.686;23.374;2023-02-01T05:44:51;95121.31;;;4.10;58.69
22257;BME280;11297;42.686;23.374;2023-02-01T05:47:16;95118.72;;;4.05;58.70
22257;BME280;11297;42.686;23.374;2023-02-01T05:49:42;95119.22;;;4.02;59.09
22257;BME280;11297;42.686;23.374;2023-02-01T05:52:07;95131.56;;;4.00;58.78
22257;BME280;11297;42.686;23.374;2023-02-01T05:54:33;95116.94;;;4.06;59.22
22257;BME280;11297;42.686;23.374;2023-02-01T05:56:58;95125.41;;;4.11;58.77
22257;BME280;11297;42.686;23.374;2023-02-01T05:59:24;95110.25;;;4.25;58.24
22257;BME280;11297;42.686;23.374;2023-02-01T06:01:49;95106.94;;;4.19;58.09
22257;BME280;11297;42.686;23.374;2023-02-01T06:04:14;95125.69;;;4.34;58.42
22257;BME280;11297;42.686;23.374;2023-02-01T06:06:40;95128.78;;;4.41;57.78
22257;BME280;11297;42.686;23.374;2023-02-01T06:09:05;95125.94;;;4.38;57.55
22257;BME280;11297;42.686;23.374;2023-02-01T06:11:31;95125.69;;;4.34;58.12
22257;BME280;11297;42.686;23.374;2023-02-01T06:13:56;95123.09;;;4.25;57.61
22257;BME280;11297;42.686;23.374;2023-02-01T06:16:22;95115.91;;;4.07;57.94
22257;BME280;11297;42.686;23.374;2023-02-01T06:18:48;95121.31;;;4.15;58.04
22257;BME280;11297;42.686;23.374;2023-02-01T06:21:13;95124.13;;;4.19;58.09
22257;BME280;11297;42.686;23.374;2023-02-01T06:23:48;95114.38;;;4.21;58.18
22257;BME280;11297;42.686;23.374;2023-02-01T06:26:14;95127.72;;;4.23;57.82
22257;BME280;11297;42.686;23.374;2023-02-01T06:28:39;95133.63;;;4.23;57.87
22257;BME280;11297;42.686;23.374;2023-02-01T06:31:05;95125.69;;;4.34;57.81
22257;BME280;11297;42.686;23.374;2023-02-01T06:33:34;95123.38;;;4.33;57.45
22257;BME280;11297;42.686;23.374;2023-02-01T06:36:01;95120.53;;;4.29;57.23
22257;BME280;11297;42.686;23.374;2023-02-01T06:38:30;95132.88;;;4.42;57.15
22257;BME280;11297;42.686;23.374;2023-02-01T06:40:56;95139.31;;;4.40;57.30
22257;BME280;11297;42.686;23.374;2023-02-01T06:43:23;95141.59;;;4.51;56.99
22257;BME280;11297;42.686;23.374;2023-02-01T06:45:50;95139.06;;;4.56;56.69
22257;BME280;11297;42.686;23.374;2023-02-01T06:48:15;95145.97;;;4.51;56.77
22257;BME280;11297;42.686;23.374;2023-02-01T06:50:40;95147.25;;;4.63;56.40
22257;BME280;11297;42.686;23.374;2023-02-01T06:53:06;95146.72;;;4.76;56.38
22257;BME280;11297;42.686;23.374;2023-02-01T06:55:31;95147.00;;;4.74;55.76
22257;BME280;11297;42.686;23.374;2023-02-01T06:57:56;95162.44;;;4.70;56.11
22257;BME280;11297;42.686;23.374;2023-02-01T07:00:22;95139.53;;;4.63;55.66
22257;BME280;11297;42.686;23.374;2023-02-01T07:02:48;95158.06;;;4.70;55.98
22257;BME280;11297;42.686;23.374;2023-02-01T07:05:14;95161.16;;;4.62;55.68
22257;BME280;11297;42.686;23.374;2023-02-01T07:07:39;95161.66;;;4.64;55.71
22257;BME280;11297;42.686;23.374;2023-02-01T07:10:05;95167.56;;;4.65;55.59
22257;BME280;11297;42.686;23.374;2023-02-01T07:12:31;95147.78;;;4.50;55.58
22257;BME280;11297;42.686;23.374;2023-02-01T07:14:56;95170.94;;;4.65;55.64
22257;BME280;11297;42.686;23.374;2023-02-01T07:17:27;95178.88;;;4.73;55.74
22257;BME280;11297;42.686;23.374;2023-02-01T07:19:54;95174.25;;;4.71;55.27
22257;BME280;11297;42.686;23.374;2023-02-01T07:22:20;95182.22;;;4.79;55.15
22257;BME280;11297;42.686;23.374;2023-02-01T07:24:45;95182.22;;;4.69;55.29
22257;BME280;11297;42.686;23.374;2023-02-01T07:27:11;95179.16;;;4.62;55.34
22257;BME280;11297;42.686;23.374;2023-02-01T07:29:36;95191.50;;;4.65;55.93
22257;BME280;11297;42.686;23.374;2023-02-01T07:32:01;95185.31;;;4.61;55.50
22257;BME280;11297;42.686;23.374;2023-02-01T07:34:27;95178.63;;;4.60;55.81
22257;BME280;11297;42.686;23.374;2023-02-01T07:36:53;95199.72;;;4.67;55.50
22257;BME280;11297;42.686;23.374;2023-02-01T07:39:18;95202.03;;;4.69;55.65
22257;BME280;11297;42.686;23.374;2023-02-01T07:41:45;95190.97;;;4.73;55.57
22257;BME280;11297;42.686;23.374;2023-02-01T07:44:11;95197.69;;;4.74;55.43
22257;BME280;11297;42.686;23.374;2023-02-01T07:46:36;95194.84;;;4.66;55.65
22257;BME280;11297;42.686;23.374;2023-02-01T07:49:01;95203.31;;;4.81;56.17
22257;BME280;11297;42.686;23.374;2023-02-01T07:51:27;95199.72;;;4.87;55.03
22257;BME280;11297;42.686;23.374;2023-02-01T07:53:52;95204.34;;;4.90;54.80
22257;BME280;11297;42.686;23.374;2023-02-01T07:56:19;95210.53;;;4.84;54.40
22257;BME280;11297;42.686;23.374;2023-02-01T07:58:51;95223.38;;;4.94;54.72
22257;BME280;11297;42.686;23.374;2023-02-01T08:01:20;95220.81;;;4.94;54.20
22257;BME280;11297;42.686;23.374;2023-02-01T08:04:12;95228.78;;;4.92;54.52
22257;BME280;11297;42.686;23.374;2023-02-01T08:06:38;95214.13;;;4.83;54.33
22257;BME280;11297;42.686;23.374;2023-02-01T08:09:06;95215.69;;;4.89;54.06
22257;BME280;11297;42.686;23.374;2023-02-01T08:11:36;95219.75;;;5.05;53.97
22257;BME280;11297;42.686;23.374;2023-02-01T08:14:04;95221.34;;;5.01;54.17
22257;BME280;11297;42.686;23.374;2023-02-01T08:16:29;95208.44;;;4.96;53.26
22257;BME280;11297;42.686;23.374;2023-02-01T08:18:54;95227.00;;;4.98;54.30
22257;BME280;11297;42.686;23.374;2023-02-01T08:21:23;95220.28;;;5.02;54.02
22257;BME280;11297;42.686;23.374;2023-02-01T08:24:05;95214.59;;;5.10;54.75
22257;BME280;11297;42.686;23.374;2023-02-01T08:26:31;95214.09;;;5.18;53.77
22257;BME280;11297;42.686;23.374;2023-02-01T08:28:59;95220.50;;;5.30;52.93
22257;BME280;11297;42.686;23.374;2023-02-01T08:31:26;95234.13;;;5.40;52.57
22257;BME280;11297;42.686;23.374;2023-02-01T08:33:56;95229.72;;;5.41;52.30
22257;BME280;11297;42.686;23.374;2023-02-01T08:36:23;95222.00;;;5.41;52.57
22257;BME280;11297;42.686;23.374;2023-02-01T08:38:49;95226.91;;;5.37;52.13
22257;BME280;11297;42.686;23.374;2023-02-01T08:41:18;95217.13;;;5.34;52.36
22257;BME280;11297;42.686;23.374;2023-02-01T08:43:44;95223.56;;;5.42;52.04
22257;BME280;11297;42.686;23.374;2023-02-01T08:46:10;95227.94;;;5.41;52.43
22257;BME280;11297;42.686;23.374;2023-02-01T08:48:37;95210.91;;;5.45;52.24
22257;BME280;11297;42.686;23.374;2023-02-01T08:51:08;95218.31;;;5.62;52.02
22257;BME280;11297;42.686;23.374;2023-02-01T08:53:34;95221.88;;;5.85;51.90
22257;BME280;11297;42.686;23.374;2023-02-01T08:56:01;95216.41;;;5.97;51.00
22257;BME280;11297;42.686;23.374;2023-02-01T08:58:27;95217.03;;;6.27;50.08
22257;BME280;11297;42.686;23.374;2023-02-01T09:00:52;95217.63;;;6.52;49.96
22257;BME280;11297;42.686;23.374;2023-02-01T09:03:21;95206.75;;;6.60;49.13
22257;BME280;11297;42.686;23.374;2023-02-01T09:05:46;95210.25;;;6.74;48.91
22257;BME280;11297;42.686;23.374;2023-02-01T09:08:19;95224.59;;;6.90;47.90
22257;BME280;11297;42.686;23.374;2023-02-01T09:10:45;95228.25;;;6.84;48.38
22257;BME280;11297;42.686;23.374;2023-02-01T09:13:10;95226.38;;;6.94;47.87
22257;BME280;11297;42.686;23.374;2023-02-01T09:15:36;95221.00;;;6.86;48.03
22257;BME280;11297;42.686;23.374;2023-02-01T09:18:02;95228.25;;;6.84;47.27
22257;BME280;11297;42.686;23.374;2023-02-01T09:20:28;95234.50;;;6.78;47.29
22257;BME280;11297;42.686;23.374;2023-02-01T09:22:55;95236.13;;;6.69;48.16
22257;BME280;11297;42.686;23.374;2023-02-01T09:25:20;95233.97;;;6.81;55.05
22257;BME280;11297;42.686;23.374;2023-02-01T09:27:46;95229.91;;;6.70;48.61
22257;BME280;11297;42.686;23.374;2023-02-01T09:30:11;95228.97;;;6.56;48.39
22257;BME280;11297;42.686;23.374;2023-02-01T09:32:37;95227.41;;;6.60;48.58
22257;BME280;11297;42.686;23.374;2023-02-01T09:35:03;95216.66;;;6.48;48.57
22257;BME280;11297;42.686;23.374;2023-02-01T09:37:28;95217.44;;;6.44;49.14
22257;BME280;11297;42.686;23.374;2023-02-01T09:39:54;95215.19;;;6.70;49.40
22257;BME280;11297;42.686;23.374;2023-02-01T09:47:47;95209.78;;;7.00;48.12
22257;BME280;11297;42.686;23.374;2023-02-01T09:50:18;95212.84;;;7.02;47.56
22257;BME280;11297;42.686;23.374;2023-02-01T09:53:33;95210.47;;;7.11;47.04
22257;BME280;11297;42.686;23.374;2023-02-01T09:56:10;95201.34;;;7.18;46.09
22257;BME280;11297;42.686;23.374;2023-02-01T09:58:49;95185.25;;;7.26;47.39
22257;BME280;11297;42.686;23.374;2023-02-01T10:01:20;95176.75;;;7.25;46.10
22257;BME280;11297;42.686;23.374;2023-02-01T10:04:16;95189.31;;;7.32;46.26
22257;BME280;11297;42.686;23.374;2023-02-01T10:07:01;95183.13;;;7.33;46.82
22257;BME280;11297;42.686;23.374;2023-02-01T10:10:02;95190.84;;;7.10;46.38
22257;BME280;11297;42.686;23.374;2023-02-01T10:28:44;95141.00;;;8.65;43.71
22257;BME280;11297;42.686;23.374;2023-02-01T10:31:11;95148.47;;;8.99;43.63
22257;BME280;11297;42.686;23.374;2023-02-01T10:33:51;95129.63;;;9.38;41.81
22257;BME280;11297;42.686;23.374;2023-02-01T10:38:58;95131.75;;;10.11;40.66
22257;BME280;11297;42.686;23.374;2023-02-01T10:41:35;95144.81;;;11.45;67.50
22257;BME280;11297;42.686;23.374;2023-02-01T10:44:09;95139.19;;;12.07;52.99
22257;BME280;11297;42.686;23.374;2023-02-01T10:46:39;95128.47;;;12.26;49.32
22257;BME280;11297;42.686;23.374;2023-02-01T10:49:08;95120.72;;;13.13;46.93
22257;BME280;11297;42.686;23.374;2023-02-01T10:52:17;95119.75;;;13.92;54.11
22257;BME280;11297;42.686;23.374;2023-02-01T10:54:44;95109.81;;;14.34;56.68
22257;BME280;11297;42.686;23.374;2023-02-01T10:57:20;95115.13;;;14.38;51.26
22257;BME280;11297;42.686;23.374;2023-02-01T10:59:45;95092.66;;;14.78;37.05
22257;BME280;11297;42.686;23.374;2023-02-01T11:02:32;95091.09;;;13.84;35.12
22257;BME280;11297;42.686;23.374;2023-02-01T11:05:03;95097.63;;;12.61;35.57
22257;BME280;11297;42.686;23.374;2023-02-01T11:07:30;95111.75;;;11.93;35.79
22257;BME280;11297;42.686;23.374;2023-02-01T11:09:56;95120.22;;;11.21;36.90
22257;BME280;11297;42.686;23.374;2023-02-01T11:12:33;95110.06;;;10.51;37.97
22257;BME280;11297;42.686;23.374;2023-02-01T11:17:40;95106.44;;;9.55;39.69
22257;BME280;11297;42.686;23.374;2023-02-01T11:20:15;95100.34;;;9.51;40.32
22257;BME280;11297;42.686;23.374;2023-02-01T11:22:49;95091.31;;;9.08;41.50
22257;BME280;11297;42.686;23.374;2023-02-01T11:25:21;95106.84;;;9.08;40.69
22257;BME280;11297;42.686;23.374;2023-02-01T11:27:49;95100.03;;;8.99;40.87
22257;BME280;11297;42.686;23.374;2023-02-01T11:30:45;95095.06;;;9.16;40.83
22257;BME280;11297;42.686;23.374;2023-02-01T11:33:15;95089.69;;;9.39;40.73
22257;BME280;11297;42.686;23.374;2023-02-01T11:35:42;95102.69;;;9.61;40.06
22257;BME280;11297;42.686;23.374;2023-02-01T11:38:31;95070.16;;;9.55;39.60
22257;BME280;11297;42.686;23.374;2023-02-01T11:41:20;95101.69;;;10.10;39.37
22257;BME280;11297;42.686;23.374;2023-02-01T11:46:19;95085.63;;;10.30;38.66
22257;BME280;11297;42.686;23.374;2023-02-01T11:48:51;95082.97;;;10.22;39.07
22257;BME280;11297;42.686;23.374;2023-02-01T11:54:08;95073.28;;;10.57;38.54
22257;BME280;11297;42.686;23.374;2023-02-01T11:56:49;95054.50;;;10.60;38.43
22257;BME280;11297;42.686;23.374;2023-02-01T12:12:40;95054.78;;;9.72;39.89
22257;BME280;11297;42.686;23.374;2023-02-01T12:15:31;95042.22;;;9.52;39.81
22257;BME280;11297;42.686;23.374;2023-02-01T12:26:45;95056.00;;;9.12;41.58
22257;BME280;11297;42.686;23.374;2023-02-01T12:43:07;95053.25;;;8.51;42.94
22257;BME280;11297;42.686;23.374;2023-02-01T12:45:49;95058.63;;;8.67;42.33
22257;BME280;11297;42.686;23.374;2023-02-01T12:51:02;95051.53;;;8.59;41.46
22257;BME280;11297;42.686;23.374;2023-02-01T12:56:47;95060.63;;;8.57;42.21
22257;BME280;11297;42.686;23.374;2023-02-01T12:59:28;95066.66;;;8.53;42.37
22257;BME280;11297;42.686;23.374;2023-02-01T13:05:13;95070.31;;;8.52;42.32
22257;BME280;11297;42.686;23.374;2023-02-01T13:07:49;95051.41;;;8.51;41.86
22257;BME280;11297;42.686;23.374;2023-02-01T13:12:57;95063.97;;;8.44;42.82
22257;BME280;11297;42.686;23.374;2023-02-01T13:15:36;95036.31;;;8.26;41.92
22257;BME280;11297;42.686;23.374;2023-02-01T13:18:05;95060.28;;;8.32;42.12
22257;BME280;11297;42.686;23.374;2023-02-01T13:23:29;95059.34;;;8.28;41.94
22257;BME280;11297;42.686;23.374;2023-02-01T13:25:58;95046.59;;;8.31;43.07
22257;BME280;11297;42.686;23.374;2023-02-01T13:28:44;95052.75;;;8.35;42.77
22257;BME280;11297;42.686;23.374;2023-02-01T13:31:27;95046.69;;;8.26;41.91
22257;BME280;11297;42.686;23.374;2023-02-01T13:42:00;95031.22;;;8.03;42.60
22257;BME280;11297;42.686;23.374;2023-02-01T13:44:36;95049.53;;;8.07;43.68
22257;BME280;11297;42.686;23.374;2023-02-01T13:47:13;95043.13;;;8.04;42.29
22257;BME280;11297;42.686;23.374;2023-02-01T13:49:41;95058.34;;;8.24;42.64
22257;BME280;11297;42.686;23.374;2023-02-01T13:52:24;95045.97;;;8.21;42.48
22257;BME280;11297;42.686;23.374;2023-02-01T13:55:01;95045.22;;;8.20;42.71
22257;BME280;11297;42.686;23.374;2023-02-01T13:57:40;95041.84;;;8.20;43.15
22257;BME280;11297;42.686;23.374;2023-02-01T14:08:23;95037.75;;;8.77;43.17
22257;BME280;11297;42.686;23.374;2023-02-01T14:10:54;95047.34;;;8.63;41.59
22257;BME280;11297;42.686;23.374;2023-02-01T14:13:37;95045.66;;;8.54;41.84
22257;BME280;11297;42.686;23.374;2023-02-01T14:23:45;95020.22;;;8.29;42.57
22257;BME280;11297;42.686;23.374;2023-02-01T14:26:16;95017.28;;;8.36;42.80
22257;BME280;11297;42.686;23.374;2023-02-01T14:31:32;94997.91;;;8.33;43.03
22257;BME280;11297;42.686;23.374;2023-02-01T14:34:02;95007.75;;;8.18;42.52
22257;BME280;11297;42.686;23.374;2023-02-01T14:36:40;95009.84;;;8.16;42.79
22257;BME280;11297;42.686;23.374;2023-02-01T14:39:28;95014.25;;;8.15;43.45
22257;BME280;11297;42.686;23.374;2023-02-01T14:42:01;94985.50;;;8.17;43.08
22257;BME280;11297;42.686;23.374;2023-02-01T14:44:29;95007.16;;;8.21;42.98
22257;BME280;11297;42.686;23.374;2023-02-01T14:47:06;95013.03;;;8.26;42.59
22257;BME280;11297;42.686;23.374;2023-02-01T14:49:33;95025.88;;;8.31;42.66
22257;BME280;11297;42.686;23.374;2023-02-01T14:52:02;95018.69;;;8.28;44.20
22257;BME280;11297;42.686;23.374;2023-02-01T14:54:30;95011.66;;;8.15;43.00
22257;BME280;11297;42.686;23.374;2023-02-01T14:56:56;95023.69;;;8.25;43.58
22257;BME280;11297;42.686;23.374;2023-02-01T14:59:23;95023.63;;;8.11;43.17
22257;BME280;11297;42.686;23.374;2023-02-01T15:01:53;95023.19;;;8.05;43.72
22257;BME280;11297;42.686;23.374;2023-02-01T15:04:20;95013.06;;;7.90;43.73
22257;BME280;11297;42.686;23.374;2023-02-01T15:09:31;95022.88;;;7.74;44.09
22257;BME280;11297;42.686;23.374;2023-02-01T15:14:30;95028.47;;;7.63;44.45
22257;BME280;11297;42.686;23.374;2023-02-01T15:16:56;95047.75;;;7.70;44.83
22257;BME280;11297;42.686;23.374;2023-02-01T15:19:23;95036.66;;;7.70;48.49
22257;BME280;11297;42.686;23.374;2023-02-01T15:21:52;95029.19;;;7.68;46.06
22257;BME280;11297;42.686;23.374;2023-02-01T15:24:30;95037.06;;;7.77;45.29
22257;BME280;11297;42.686;23.374;2023-02-01T15:27:02;95030.13;;;7.72;45.46
22257;BME280;11297;42.686;23.374;2023-02-01T15:29:29;95025.75;;;7.73;45.44
22257;BME280;11297;42.686;23.374;2023-02-01T15:31:58;95020.88;;;7.71;45.08
22257;BME280;11297;42.686;23.374;2023-02-01T15:34:23;95019.22;;;7.75;45.38
22257;BME280;11297;42.686;23.374;2023-02-01T15:37:12;95018.69;;;7.78;44.11
22257;BME280;11297;42.686;23.374;2023-02-01T15:40:04;95032.31;;;7.84;44.29